| time (UTC) | temp F | wind direction | speed knots | gust knots | rain 1hr in | rain 24hr in | rain mn in | humidity % | barometer mb |
| 20260510110032 | 41 | 0 | 0.0 | 1.7 | 0.00 | 0.11 | 0.00 | 68 | 1014.9 |
| 20260510105515 | 40 | 0 | 0.0 | 1.7 | 0.00 | 0.11 | 0.00 | 69 | 1014.9 |
| 20260510105016 | 40 | 284 | 0.0 | 1.7 | 0.00 | 0.11 | 0.00 | 69 | 1014.9 |
| 20260510104536 | 40 | 0 | 0.0 | 0.9 | 0.00 | 0.11 | 0.00 | 70 | 1014.8 |
| 20260510104016 | 40 | 0 | 0.0 | 0.9 | 0.00 | 0.11 | 0.00 | 70 | 1014.7 |
| 20260510103515 | 40 | 0 | 0.0 | 1.7 | 0.00 | 0.11 | 0.00 | 70 | 1014.6 |
| 20260510103031 | 40 | 0 | 0.0 | 2.6 | 0.00 | 0.11 | 0.00 | 70 | 1014.6 |
| 20260510102515 | 40 | 0 | 0.0 | 2.6 | 0.00 | 0.11 | 0.00 | 70 | 1014.6 |
| 20260510102019 | 40 | 0 | 0.0 | 1.7 | 0.00 | 0.11 | 0.00 | 70 | 1014.6 |
| 20260510101532 | 40 | 0 | 0.0 | 1.7 | 0.00 | 0.11 | 0.00 | 70 | 1014.6 |
| 20260510101018 | 39 | 0 | 0.0 | 1.7 | 0.00 | 0.11 | 0.00 | 71 | 1014.5 |
| 20260510100516 | 39 | 0 | 0.0 | 1.7 | 0.00 | 0.11 | 0.00 | 71 | 1014.4 |
| 20260510100030 | 40 | 0 | 0.0 | 0.9 | 0.00 | 0.11 | 0.00 | 73 | 1014.4 |
| 20260510095518 | 40 | 0 | 0.0 | 0.9 | 0.00 | 0.11 | 0.00 | 73 | 1014.4 |
| 20260510095018 | 40 | 0 | 0.0 | 0.0 | 0.00 | 0.11 | 0.00 | 73 | 1014.3 |
| 20260510094532 | 40 | 0 | 0.0 | 0.0 | 0.00 | 0.11 | 0.00 | 74 | 1014.2 |
| 20260510094015 | 40 | 0 | 0.0 | 0.0 | 0.00 | 0.11 | 0.00 | 73 | 1014.0 |
| 20260510093519 | 40 | 0 | 0.0 | 0.0 | 0.00 | 0.11 | 0.00 | 73 | 1014.1 |
| 20260510093029 | 40 | 0 | 0.0 | 0.0 | 0.00 | 0.11 | 0.00 | 73 | 1014.0 |
| 20260510092515 | 40 | 0 | 0.0 | 0.0 | 0.00 | 0.11 | 0.00 | 73 | 1014.0 |
| 20260510092017 | 40 | 0 | 0.0 | 0.0 | 0.00 | 0.11 | 0.00 | 73 | 1013.8 |
| 20260510091532 | 41 | 0 | 0.0 | 0.0 | 0.00 | 0.11 | 0.00 | 72 | 1013.8 |
| 20260510091013 | 41 | 0 | 0.0 | 0.0 | 0.00 | 0.11 | 0.00 | 71 | 1013.7 |
| 20260510090515 | 41 | 0 | 0.0 | 0.0 | 0.00 | 0.11 | 0.00 | 71 | 1013.6 |
| 20260510090032 | 41 | 0 | 0.0 | 0.0 | 0.00 | 0.11 | 0.00 | 70 | 1013.5 |
| 20260510085515 | 41 | 0 | 0.0 | 0.0 | 0.00 | 0.11 | 0.00 | 70 | 1013.4 |
| 20260510085016 | 41 | 0 | 0.0 | 0.9 | 0.00 | 0.11 | 0.00 | 69 | 1013.3 |
| 20260510084545 | 41 | 0 | 0.0 | 1.7 | 0.00 | 0.11 | 0.00 | 69 | 1013.3 |
| 20260510084017 | 42 | 0 | 0.0 | 1.7 | 0.00 | 0.11 | 0.00 | 68 | 1013.3 |
| 20260510083516 | 42 | 0 | 0.0 | 1.7 | 0.00 | 0.11 | 0.00 | 68 | 1013.2 |
| 20260510083030 | 42 | 304 | 0.0 | 1.7 | 0.00 | 0.11 | 0.00 | 68 | 1013.1 |
| 20260510082515 | 42 | 0 | 0.0 | 0.0 | 0.00 | 0.11 | 0.00 | 68 | 1013.0 |
| 20260510082012 | 42 | 0 | 0.0 | 0.0 | 0.00 | 0.11 | 0.00 | 69 | 1012.9 |
| 20260510081535 | 42 | 0 | 0.0 | 0.0 | 0.00 | 0.11 | 0.00 | 68 | 1012.9 |
| 20260510081015 | 42 | 0 | 0.0 | 0.9 | 0.00 | 0.11 | 0.00 | 68 | 1012.8 |
| 20260510080515 | 43 | 0 | 0.0 | 0.9 | 0.00 | 0.11 | 0.00 | 68 | 1012.8 |
| 20260510080030 | 43 | 345 | 0.0 | 0.9 | 0.00 | 0.11 | 0.00 | 67 | 1012.7 |
| 20260510075516 | 43 | 0 | 0.0 | 0.9 | 0.00 | 0.11 | 0.00 | 67 | 1012.6 |
| 20260510075019 | 43 | 0 | 0.0 | 0.0 | 0.00 | 0.11 | 0.00 | 67 | 1012.4 |
| 20260510074538 | 43 | 0 | 0.0 | 0.0 | 0.00 | 0.11 | 0.00 | 67 | 1012.4 |
| 20260510074015 | 43 | 0 | 0.0 | 0.0 | 0.00 | 0.11 | 0.00 | 66 | 1012.3 |
| 20260510073515 | 44 | 0 | 0.0 | 0.9 | 0.00 | 0.11 | 0.00 | 66 | 1012.3 |
| 20260510073045 | 44 | 0 | 0.0 | 0.9 | 0.00 | 0.11 | 0.00 | 65 | 1012.1 |
| 20260510072514 | 44 | 0 | 0.0 | 0.0 | 0.00 | 0.11 | 0.00 | 65 | 1012.0 |
| 20260510072016 | 44 | 0 | 0.0 | 0.0 | 0.00 | 0.11 | 0.00 | 65 | 1012.0 |
| 20260510071532 | 44 | 0 | 0.0 | 0.0 | 0.00 | 0.11 | 0.00 | 64 | 1011.9 |
| 20260510071012 | 44 | 0 | 0.0 | 0.9 | 0.00 | 0.11 | 0.00 | 64 | 1012.0 |
| 20260510070513 | 44 | 0 | 0.0 | 1.7 | 0.00 | 0.11 | 0.00 | 64 | 1011.9 |
| 20260510070035 | 45 | 0 | 0.0 | 1.7 | 0.00 | 0.11 | 0.00 | 64 | 1011.6 |
| 20260510065518 | 45 | 0 | 0.0 | 2.6 | 0.00 | 0.11 | 0.00 | 64 | 1011.6 |
| 20260510065018 | 45 | 0 | 0.0 | 2.6 | 0.00 | 0.11 | 0.00 | 64 | 1011.5 |
| 20260510064530 | 45 | 323 | 0.0 | 1.7 | 0.00 | 0.11 | 0.00 | 64 | 1011.4 |
| 20260510064012 | 45 | 0 | 0.0 | 2.6 | 0.00 | 0.11 | 0.00 | 64 | 1011.4 |
| 20260510063517 | 46 | 0 | 0.0 | 2.6 | 0.00 | 0.11 | 0.00 | 63 | 1011.3 |
| 20260510063030 | 46 | 0 | 0.0 | 2.6 | 0.00 | 0.11 | 0.00 | 63 | 1011.3 |
| 20260510062514 | 46 | 0 | 0.0 | 2.6 | 0.00 | 0.11 | 0.00 | 62 | 1011.3 |
| 20260510062013 | 46 | 316 | 0.0 | 4.3 | 0.00 | 0.11 | 0.00 | 61 | 1011.2 |
| 20260510061531 | 47 | 0 | 0.9 | 4.3 | 0.00 | 0.11 | 0.00 | 61 | 1011.1 |
| 20260510061017 | 47 | 20 | 0.0 | 7.0 | 0.00 | 0.11 | 0.00 | 61 | 1011.1 |
| 20260510060516 | 47 | 303 | 2.6 | 7.8 | 0.00 | 0.11 | 0.00 | 60 | 1011.0 |
| 20260510060038 | 47 | 335 | 1.7 | 7.8 | 0.00 | 0.11 | 0.00 | 60 | 1010.9 |
| 20260510055514 | 48 | 336 | 3.5 | 9.6 | 0.00 | 0.11 | 0.00 | 60 | 1010.9 |
| 20260510055015 | 48 | 6 | 4.3 | 11.3 | 0.00 | 0.11 | 0.00 | 60 | 1010.8 |
| 20260510054531 | 48 | 41 | 5.2 | 11.3 | 0.00 | 0.11 | 0.00 | 60 | 1010.8 |
| 20260510054013 | 48 | 355 | 5.2 | 11.3 | 0.00 | 0.11 | 0.00 | 60 | 1010.7 |
| 20260510053515 | 48 | 327 | 2.6 | 6.1 | 0.00 | 0.11 | 0.00 | 61 | 1010.6 |
| 20260510053032 | 48 | 0 | 0.0 | 2.6 | 0.00 | 0.11 | 0.00 | 62 | 1010.5 |
| 20260510052514 | 48 | 18 | 0.0 | 0.0 | 0.00 | 0.11 | 0.00 | 62 | 1010.5 |
| 20260510052017 | 48 | 0 | 0.0 | 0.0 | 0.00 | 0.11 | 0.00 | 61 | 1010.4 |
| 20260510051530 | 49 | 0 | 0.0 | 0.0 | 0.00 | 0.11 | 0.00 | 60 | 1010.3 |
| 20260510051015 | 49 | 0 | 0.0 | 0.0 | 0.00 | 0.11 | 0.00 | 59 | 1010.3 |
| 20260510050514 | 49 | 0 | 0.0 | 0.0 | 0.00 | 0.11 | 0.00 | 59 | 1010.2 |
| 20260510050031 | 50 | 0 | 0.0 | 0.0 | 0.00 | 0.11 | 0.00 | 58 | 1010.0 |
| 20260510045515 | 50 | 0 | 0.0 | 2.6 | 0.00 | 0.11 | 0.00 | 57 | 1010.1 |
| 20260510045016 | 50 | 0 | 0.0 | 2.6 | 0.00 | 0.11 | 0.00 | 56 | 1010.0 |
| 20260510044530 | 50 | 0 | 0.9 | 5.2 | 0.00 | 0.11 | 0.00 | 55 | 1009.9 |
| 20260510044015 | 51 | 0 | 0.0 | 5.2 | 0.00 | 0.11 | 0.00 | 55 | 1009.8 |
| 20260510043516 | 51 | 342 | 1.7 | 7.0 | 0.00 | 0.11 | 0.00 | 54 | 1009.6 |
| 20260510043031 | 51 | 328 | 1.7 | 7.0 | 0.00 | 0.11 | 0.00 | 55 | 1009.5 |
| 20260510042517 | 51 | 338 | 1.7 | 7.0 | 0.00 | 0.11 | 0.00 | 55 | 1009.4 |
| 20260510042016 | 51 | 356 | 3.5 | 7.0 | 0.00 | 0.11 | 0.00 | 56 | 1009.4 |
| 20260510041534 | 51 | 340 | 2.6 | 6.1 | 0.00 | 0.11 | 0.00 | 56 | 1009.3 |
| 20260510041018 | 51 | 30 | 0.9 | 6.1 | 0.00 | 0.11 | 0.00 | 58 | 1009.3 |
| 20260510040515 | 51 | 3 | 0.9 | 4.3 | 0.00 | 0.11 | 0.00 | 59 | 1009.2 |
| 20260510040030 | 51 | 351 | 0.9 | 3.5 | 0.00 | 0.11 | 0.00 | 58 | 1009.2 |
| 20260510035512 | 52 | 319 | 0.9 | 3.5 | 0.00 | 0.11 | 0.11 | 58 | 1009.2 |
| 20260510035014 | 52 | 342 | 0.9 | 4.3 | 0.00 | 0.11 | 0.11 | 59 | 1009.1 |
| 20260510034532 | 52 | 0 | 0.0 | 4.3 | 0.00 | 0.11 | 0.11 | 59 | 1009.1 |
| 20260510034015 | 52 | 327 | 1.7 | 6.1 | 0.00 | 0.11 | 0.11 | 58 | 1009.0 |
| 20260510033519 | 53 | 316 | 1.7 | 6.1 | 0.00 | 0.11 | 0.11 | 58 | 1008.9 |
| 20260510033030 | 53 | 15 | 2.6 | 7.0 | 0.00 | 0.11 | 0.11 | 57 | 1008.9 |
| 20260510032515 | 53 | 354 | 2.6 | 7.0 | 0.00 | 0.11 | 0.11 | 56 | 1008.9 |
| 20260510032013 | 54 | 28 | 2.6 | 7.0 | 0.00 | 0.11 | 0.11 | 56 | 1008.8 |
| 20260510031535 | 54 | 318 | 1.7 | 8.7 | 0.00 | 0.11 | 0.11 | 55 | 1008.8 |
| 20260510031017 | 54 | 24 | 4.3 | 8.7 | 0.00 | 0.11 | 0.11 | 53 | 1008.8 |
| 20260510030515 | 55 | 16 | 3.5 | 7.8 | 0.00 | 0.11 | 0.11 | 53 | 1008.7 |
| 20260510030035 | 56 | 3 | 2.6 | 7.8 | 0.00 | 0.11 | 0.11 | 51 | 1008.3 |
| 20260510025515 | 56 | 0 | 0.9 | 5.2 | 0.00 | 0.11 | 0.11 | 50 | 1008.2 |
| 20260510025015 | 56 | 9 | 1.7 | 7.8 | 0.00 | 0.11 | 0.11 | 50 | 1008.1 |
| 20260510024534 | 57 | 342 | 1.7 | 7.8 | 0.00 | 0.11 | 0.11 | 49 | 1008.0 |
| 20260510024014 | 57 | 340 | 2.6 | 7.0 | 0.00 | 0.11 | 0.11 | 49 | 1008.0 |
| 20260510023514 | 57 | 317 | 2.6 | 9.6 | 0.00 | 0.11 | 0.11 | 48 | 1008.0 |
| 20260510023030 | 57 | 349 | 2.6 | 9.6 | 0.00 | 0.11 | 0.11 | 48 | 1007.9 |
| 20260510022516 | 57 | 302 | 4.3 | 10.4 | 0.00 | 0.11 | 0.11 | 47 | 1007.8 |
| 20260510022017 | 58 | 304 | 3.5 | 10.4 | 0.00 | 0.11 | 0.11 | 47 | 1007.6 |
| 20260510021534 | 58 | 296 | 2.6 | 8.7 | 0.00 | 0.11 | 0.11 | 47 | 1007.6 |
| 20260510021013 | 58 | 337 | 2.6 | 6.1 | 0.00 | 0.11 | 0.11 | 46 | 1007.5 |
| 20260510020515 | 58 | 321 | 0.9 | 5.2 | 0.00 | 0.11 | 0.11 | 46 | 1007.3 |
| 20260510020030 | 58 | 301 | 1.7 | 6.1 | 0.00 | 0.11 | 0.11 | 46 | 1007.2 |
| 20260510015517 | 58 | 326 | 1.7 | 9.6 | 0.00 | 0.11 | 0.11 | 45 | 1007.0 |
| 20260510015016 | 58 | 309 | 3.5 | 15.6 | 0.00 | 0.11 | 0.11 | 45 | 1006.9 |
| 20260510014529 | 58 | 328 | 6.1 | 15.6 | 0.00 | 0.11 | 0.11 | 44 | 1006.8 |
| 20260510014015 | 59 | 324 | 7.0 | 13.0 | 0.00 | 0.11 | 0.11 | 44 | 1006.7 |
| 20260510013514 | 59 | 308 | 7.0 | 13.0 | 0.00 | 0.11 | 0.11 | 44 | 1006.5 |
| 20260510013032 | 59 | 330 | 3.5 | 11.3 | 0.00 | 0.11 | 0.11 | 45 | 1006.3 |
| 20260510012514 | 60 | 310 | 4.3 | 11.3 | 0.00 | 0.11 | 0.11 | 45 | 1006.0 |
| 20260510012015 | 60 | 315 | 4.3 | 10.4 | 0.00 | 0.11 | 0.11 | 45 | 1005.8 |
| 20260510011531 | 60 | 309 | 0.9 | 7.0 | 0.00 | 0.11 | 0.11 | 49 | 1005.6 |
| 20260510011014 | 60 | 316 | 0.9 | 6.1 | 0.00 | 0.11 | 0.11 | 50 | 1005.4 |
| 20260510010515 | 60 | 0 | 0.9 | 6.1 | 0.00 | 0.11 | 0.11 | 49 | 1005.1 |
| 20260510010032 | 60 | 0 | 0.0 | 0.0 | 0.00 | 0.11 | 0.11 | 54 | 1005.1 |
| 20260510005514 | 60 | 0 | 0.0 | 0.0 | 0.00 | 0.11 | 0.11 | 52 | 1005.1 |
| 20260510005018 | 60 | 0 | 0.0 | 0.0 | 0.00 | 0.11 | 0.11 | 53 | 1005.0 |
| 20260510004529 | 60 | 0 | 0.0 | 3.5 | 0.00 | 0.11 | 0.11 | 51 | 1004.9 |
| 20260510004014 | 61 | 0 | 0.0 | 3.5 | 0.00 | 0.11 | 0.11 | 50 | 1004.9 |
| 20260510003514 | 61 | 0 | 0.0 | 4.3 | 0.00 | 0.11 | 0.11 | 49 | 1004.8 |
| 20260510003031 | 61 | 287 | 0.0 | 6.1 | 0.00 | 0.11 | 0.11 | 48 | 1004.6 |
| 20260510002514 | 61 | 243 | 0.9 | 6.1 | 0.00 | 0.11 | 0.11 | 47 | 1004.8 |
| 20260510002019 | 61 | 283 | 0.0 | 4.3 | 0.00 | 0.11 | 0.11 | 47 | 1004.4 |
| 20260510001531 | 62 | 0 | 0.0 | 7.8 | 0.00 | 0.11 | 0.11 | 47 | 1004.4 |
| 20260510001015 | 62 | 0 | 0.9 | 7.8 | 0.00 | 0.11 | 0.11 | 46 | 1004.3 |
| 20260510000519 | 62 | 0 | 0.9 | 7.8 | 0.00 | 0.11 | 0.11 | 46 | 1004.3 |
| 20260510000035 | 62 | 281 | 0.9 | 7.8 | 0.00 | 0.11 | 0.11 | 46 | 1004.2 |
| 20260509235515 | 62 | 268 | 2.6 | 9.6 | 0.00 | 0.11 | 0.11 | 45 | 1004.3 |
| 20260509235016 | 63 | 249 | 1.7 | 9.6 | 0.00 | 0.11 | 0.11 | 45 | 1004.1 |
| 20260509234538 | 63 | 226 | 1.7 | 9.6 | 0.00 | 0.11 | 0.11 | 45 | 1004.0 |
| 20260509234015 | 63 | 256 | 0.9 | 9.6 | 0.00 | 0.11 | 0.11 | 44 | 1004.0 |
| 20260509233515 | 63 | 287 | 1.7 | 12.2 | 0.00 | 0.11 | 0.11 | 43 | 1003.9 |
| 20260509233030 | 63 | 286 | 3.5 | 12.2 | 0.00 | 0.11 | 0.11 | 43 | 1003.9 |
| 20260509232513 | 63 | 280 | 5.2 | 13.9 | 0.00 | 0.11 | 0.11 | 42 | 1003.8 |
| 20260509232015 | 63 | 212 | 3.5 | 15.6 | 0.00 | 0.11 | 0.11 | 42 | 1003.8 |
| 20260509231530 | 64 | 245 | 3.5 | 15.6 | 0.00 | 0.11 | 0.11 | 42 | 1003.7 |
| 20260509231016 | 64 | 243 | 7.0 | 19.1 | 0.00 | 0.11 | 0.11 | 40 | 1003.7 |
| 20260509230516 | 65 | 267 | 7.0 | 19.1 | 0.00 | 0.11 | 0.11 | 39 | 1003.7 |
| 20260509230032 | 65 | 250 | 6.1 | 18.2 | 0.00 | 0.11 | 0.11 | 39 | 1003.6 |
| 20260509225516 | 65 | 246 | 4.3 | 20.0 | 0.00 | 0.11 | 0.11 | 39 | 1003.5 |
| 20260509225015 | 66 | 201 | 8.7 | 26.1 | 0.00 | 0.11 | 0.11 | 37 | 1003.4 |
| 20260509224530 | 66 | 231 | 7.8 | 26.1 | 0.00 | 0.11 | 0.11 | 37 | 1003.3 |
| 20260509224015 | 66 | 269 | 12.2 | 25.2 | 0.00 | 0.11 | 0.11 | 36 | 1003.1 |
| 20260509223519 | 66 | 245 | 7.8 | 17.4 | 0.00 | 0.11 | 0.11 | 37 | 1003.1 |
| 20260509223030 | 66 | 211 | 5.2 | 14.8 | 0.00 | 0.11 | 0.11 | 38 | 1003.0 |
| 20260509222514 | 66 | 290 | 3.5 | 14.8 | 0.00 | 0.11 | 0.11 | 38 | 1003.0 |
| 20260509222013 | 66 | 252 | 7.8 | 14.8 | 0.00 | 0.11 | 0.11 | 37 | 1002.8 |
| 20260509221529 | 66 | 236 | 6.1 | 18.2 | 0.00 | 0.11 | 0.11 | 38 | 1002.6 |
| 20260509221016 | 66 | 298 | 7.0 | 18.2 | 0.00 | 0.11 | 0.11 | 38 | 1002.6 |
| 20260509220516 | 66 | 273 | 9.6 | 18.2 | 0.00 | 0.11 | 0.11 | 37 | 1002.5 |
| 20260509220031 | 66 | 176 | 9.6 | 18.2 | 0.00 | 0.11 | 0.11 | 38 | 1002.4 |
| 20260509215518 | 66 | 213 | 6.1 | 15.6 | 0.00 | 0.11 | 0.11 | 40 | 1002.4 |
| 20260509215013 | 65 | 224 | 7.8 | 18.2 | 0.00 | 0.11 | 0.11 | 40 | 1002.4 |
| 20260509214533 | 65 | 194 | 7.8 | 18.2 | 0.00 | 0.11 | 0.11 | 40 | 1002.3 |
| 20260509214019 | 65 | 221 | 8.7 | 18.2 | 0.00 | 0.11 | 0.11 | 39 | 1002.2 |
| 20260509213514 | 66 | 290 | 7.8 | 20.9 | 0.00 | 0.11 | 0.11 | 39 | 1002.3 |
| 20260509213031 | 66 | 266 | 9.6 | 20.9 | 0.00 | 0.11 | 0.11 | 39 | 1002.3 |
| 20260509212516 | 66 | 279 | 7.8 | 22.6 | 0.00 | 0.11 | 0.11 | 39 | 1002.4 |
| 20260509212015 | 66 | 229 | 13.0 | 22.6 | 0.00 | 0.11 | 0.11 | 39 | 1002.1 |
| 20260509211530 | 66 | 223 | 7.8 | 17.4 | 0.00 | 0.11 | 0.11 | 39 | 1002.2 |
| 20260509211014 | 66 | 240 | 8.7 | 18.2 | 0.00 | 0.11 | 0.11 | 39 | 1002.2 |
| 20260509210516 | 66 | 229 | 8.7 | 18.2 | 0.00 | 0.11 | 0.11 | 40 | 1002.1 |
| 20260509210031 | 66 | 231 | 4.3 | 15.6 | 0.00 | 0.11 | 0.11 | 42 | 1002.0 |
| 20260509205514 | 65 | 226 | 7.8 | 20.0 | 0.00 | 0.11 | 0.11 | 41 | 1002.0 |
| 20260509205017 | 65 | 213 | 9.6 | 20.0 | 0.00 | 0.11 | 0.11 | 43 | 1002.1 |
| 20260509204532 | 65 | 217 | 7.0 | 17.4 | 0.00 | 0.11 | 0.11 | 42 | 1001.8 |
| 20260509204015 | 64 | 225 | 7.0 | 16.5 | 0.00 | 0.11 | 0.11 | 43 | 1002.1 |
| 20260509203515 | 64 | 231 | 7.8 | 18.2 | 0.00 | 0.11 | 0.11 | 45 | 1002.1 |
| 20260509203032 | 64 | 278 | 8.7 | 20.0 | 0.00 | 0.11 | 0.11 | 44 | 1002.2 |
| 20260509202513 | 63 | 245 | 8.7 | 20.0 | 0.00 | 0.11 | 0.11 | 44 | 1002.3 |
| 20260509202018 | 63 | 210 | 11.3 | 20.0 | 0.00 | 0.11 | 0.11 | 44 | 1002.5 |
| 20260509201532 | 64 | 236 | 7.8 | 17.4 | 0.00 | 0.11 | 0.11 | 46 | 1002.6 |
| 20260509201014 | 64 | 266 | 6.1 | 17.4 | 0.00 | 0.11 | 0.11 | 44 | 1002.5 |
| 20260509200516 | 64 | 249 | 7.8 | 17.4 | 0.00 | 0.11 | 0.11 | 45 | 1002.7 |
| 20260509200040 | 64 | 288 | 7.8 | 16.5 | 0.00 | 0.11 | 0.11 | 45 | 1002.9 |
| 20260509195520 | 64 | 248 | 6.1 | 17.4 | 0.00 | 0.11 | 0.11 | 46 | 1002.9 |
| 20260509195014 | 65 | 273 | 6.1 | 17.4 | 0.00 | 0.11 | 0.11 | 47 | 1003.2 |
| 20260509194531 | 64 | 278 | 4.3 | 17.4 | 0.00 | 0.11 | 0.11 | 49 | 1002.9 |
| 20260509194014 | 64 | 248 | 4.3 | 14.8 | 0.00 | 0.11 | 0.11 | 50 | 1002.8 |
| 20260509193521 | 64 | 279 | 3.5 | 12.2 | 0.00 | 0.11 | 0.11 | 53 | 1002.8 |
| 20260509193032 | 64 | 293 | 4.3 | 10.4 | 0.01 | 0.11 | 0.11 | 56 | 1002.8 |
| 20260509192513 | 63 | 233 | 2.6 | 10.4 | 0.06 | 0.11 | 0.11 | 65 | 1002.8 |
| 20260509192017 | 62 | 261 | 2.6 | 7.8 | 0.10 | 0.11 | 0.11 | 68 | 1002.8 |
| 20260509191532 | 61 | 0 | 0.0 | 5.2 | 0.11 | 0.11 | 0.11 | 75 | 1002.8 |
| 20260509191017 | 60 | 200 | 0.0 | 6.1 | 0.11 | 0.11 | 0.11 | 77 | 1002.6 |
| 20260509190514 | 59 | 0 | 0.9 | 7.0 | 0.11 | 0.11 | 0.11 | 77 | 1002.7 |
| 20260509190030 | 58 | 208 | 3.5 | 7.8 | 0.11 | 0.11 | 0.11 | 77 | 1002.9 |
| 20260509185513 | 58 | 193 | 2.6 | 10.4 | 0.11 | 0.11 | 0.11 | 82 | 1002.8 |
| 20260509185015 | 57 | 268 | 3.5 | 10.4 | 0.11 | 0.11 | 0.11 | 82 | 1002.9 |
| 20260509184538 | 56 | 230 | 1.7 | 7.0 | 0.11 | 0.11 | 0.11 | 84 | 1002.8 |
| 20260509184014 | 55 | 228 | 1.7 | 12.2 | 0.11 | 0.11 | 0.11 | 83 | 1002.7 |
| 20260509183516 | 55 | 285 | 1.7 | 12.2 | 0.11 | 0.11 | 0.11 | 81 | 1002.5 |
| 20260509183031 | 55 | 209 | 4.3 | 23.5 | 0.08 | 0.08 | 0.08 | 77 | 1003.1 |
| 20260509182515 | 58 | 223 | 5.2 | 23.5 | 0.05 | 0.05 | 0.05 | 69 | 1003.0 |
| 20260509182014 | 62 | 188 | 8.7 | 19.1 | 0.00 | 0.00 | 0.00 | 58 | 1003.0 |
| 20260509181531 | 65 | 271 | 5.2 | 15.6 | 0.00 | 0.00 | 0.00 | 49 | 1002.2 |
| 20260509181015 | 65 | 215 | 7.8 | 18.2 | 0.00 | 0.00 | 0.00 | 49 | 1001.4 |
| 20260509180514 | 65 | 229 | 7.8 | 18.2 | 0.00 | 0.00 | 0.00 | 50 | 1001.2 |
| 20260509180032 | 66 | 238 | 10.4 | 18.2 | 0.00 | 0.00 | 0.00 | 48 | 1001.2 |
| 20260509175516 | 66 | 224 | 8.7 | 18.2 | 0.00 | 0.00 | 0.00 | 49 | 1001.3 |
| 20260509175015 | 66 | 208 | 8.7 | 17.4 | 0.00 | 0.00 | 0.00 | 48 | 1001.3 |
| 20260509174535 | 66 | 235 | 10.4 | 19.1 | 0.00 | 0.00 | 0.00 | 48 | 1001.4 |
| 20260509174014 | 66 | 227 | 8.7 | 20.9 | 0.00 | 0.00 | 0.00 | 49 | 1001.4 |
| 20260509173514 | 66 | 245 | 8.7 | 26.1 | 0.00 | 0.00 | 0.00 | 48 | 1001.6 |
| 20260509173031 | 66 | 232 | 10.4 | 26.1 | 0.00 | 0.00 | 0.00 | 47 | 1001.6 |
| 20260509172513 | 66 | 246 | 6.1 | 14.8 | 0.00 | 0.00 | 0.00 | 51 | 1001.7 |
| 20260509172016 | 66 | 210 | 4.3 | 14.8 | 0.00 | 0.00 | 0.00 | 51 | 1001.8 |
| 20260509171533 | 66 | 181 | 6.1 | 18.2 | 0.00 | 0.00 | 0.00 | 51 | 1001.6 |
| 20260509171014 | 66 | 226 | 7.8 | 18.2 | 0.00 | 0.00 | 0.00 | 51 | 1001.6 |
| 20260509170516 | 66 | 223 | 8.7 | 18.2 | 0.00 | 0.00 | 0.00 | 51 | 1001.6 |
| 20260509170033 | 66 | 229 | 6.1 | 17.4 | 0.00 | 0.00 | 0.00 | 51 | 1001.7 |
| 20260509165513 | 66 | 181 | 7.8 | 17.4 | 0.00 | 0.00 | 0.00 | 51 | 1001.7 |
| 20260509165013 | 66 | 200 | 6.1 | 16.5 | 0.00 | 0.00 | 0.00 | 51 | 1001.8 |
| 20260509164529 | 65 | 207 | 8.7 | 16.5 | 0.00 | 0.00 | 0.00 | 52 | 1001.8 |
| 20260509164014 | 65 | 229 | 7.8 | 16.5 | 0.00 | 0.00 | 0.00 | 55 | 1001.9 |
| 20260509163513 | 65 | 213 | 5.2 | 16.5 | 0.00 | 0.00 | 0.00 | 55 | 1001.9 |
| 20260509163041 | 64 | 195 | 6.1 | 16.5 | 0.00 | 0.00 | 0.00 | 58 | 1001.9 |
| 20260509162516 | 64 | 139 | 8.7 | 16.5 | 0.00 | 0.00 | 0.00 | 57 | 1001.9 |
| 20260509162015 | 64 | 147 | 6.1 | 16.5 | 0.00 | 0.00 | 0.00 | 60 | 1002.2 |
| 20260509161531 | 63 | 200 | 7.8 | 16.5 | 0.00 | 0.00 | 0.00 | 60 | 1002.2 |
| 20260509161014 | 63 | 202 | 6.1 | 15.6 | 0.00 | 0.00 | 0.00 | 62 | 1002.3 |
| 20260509160516 | 62 | 158 | 4.3 | 11.3 | 0.00 | 0.00 | 0.00 | 63 | 1002.3 |
| 20260509160032 | 62 | 210 | 2.6 | 12.2 | 0.00 | 0.00 | 0.00 | 64 | 1002.4 |
| 20260509155514 | 62 | 196 | 4.3 | 12.2 | 0.00 | 0.00 | 0.00 | 64 | 1002.5 |
| 20260509155018 | 62 | 172 | 3.5 | 15.6 | 0.00 | 0.00 | 0.00 | 65 | 1002.5 |
| 20260509154540 | 62 | 215 | 5.2 | 15.6 | 0.00 | 0.00 | 0.00 | 66 | 1002.4 |
| 20260509154016 | 61 | 184 | 7.8 | 15.6 | 0.00 | 0.00 | 0.00 | 67 | 1002.5 |
| 20260509153514 | 61 | 191 | 6.1 | 10.4 | 0.00 | 0.00 | 0.00 | 68 | 1002.6 |
| 20260509153032 | 60 | 187 | 4.3 | 10.4 | 0.00 | 0.00 | 0.00 | 69 | 1002.6 |
| 20260509152514 | 60 | 187 | 4.3 | 13.0 | 0.00 | 0.00 | 0.00 | 70 | 1002.8 |
| 20260509152021 | 59 | 168 | 7.0 | 13.0 | 0.00 | 0.00 | 0.00 | 71 | 1002.7 |
| 20260509151529 | 59 | 189 | 4.3 | 11.3 | 0.00 | 0.00 | 0.00 | 72 | 1002.8 |
| 20260509151015 | 59 | 177 | 5.2 | 11.3 | 0.00 | 0.00 | 0.00 | 72 | 1002.9 |
| 20260509150512 | 58 | 164 | 3.5 | 9.6 | 0.00 | 0.00 | 0.00 | 74 | 1003.0 |
| 20260509150029 | 58 | 174 | 4.3 | 9.6 | 0.00 | 0.00 | 0.00 | 76 | 1002.9 |
| 20260509145516 | 57 | 181 | 2.6 | 7.0 | 0.00 | 0.00 | 0.00 | 79 | 1003.1 |
| 20260509145013 | 56 | 139 | 3.5 | 7.0 | 0.00 | 0.00 | 0.00 | 80 | 1003.2 |
| 20260509144532 | 56 | 165 | 2.6 | 5.2 | 0.00 | 0.00 | 0.00 | 82 | 1003.3 |
| 20260509144014 | 55 | 200 | 1.7 | 4.3 | 0.00 | 0.00 | 0.00 | 84 | 1003.2 |
| 20260509143514 | 55 | 202 | 1.7 | 4.3 | 0.00 | 0.00 | 0.00 | 84 | 1003.2 |
| 20260509143044 | 55 | 136 | 0.9 | 4.3 | 0.00 | 0.00 | 0.00 | 84 | 1003.5 |
| 20260509142514 | 54 | 136 | 0.0 | 1.7 | 0.00 | 0.00 | 0.00 | 84 | 1003.6 |
| 20260509142015 | 54 | 0 | 0.0 | 3.5 | 0.00 | 0.00 | 0.00 | 86 | 1003.8 |
| 20260509141540 | 54 | 8 | 0.0 | 6.1 | 0.00 | 0.00 | 0.00 | 86 | 1003.9 |
| 20260509141014 | 54 | 266 | 0.9 | 7.8 | 0.00 | 0.00 | 0.00 | 86 | 1004.1 |
| 20260509140516 | 54 | 196 | 2.6 | 11.3 | 0.00 | 0.00 | 0.00 | 87 | 1003.9 |
| 20260509140030 | 53 | 174 | 5.2 | 11.3 | 0.00 | 0.00 | 0.00 | 87 | 1003.4 |
| 20260509135515 | 53 | 161 | 6.1 | 11.3 | 0.00 | 0.00 | 0.00 | 87 | 1003.4 |
| 20260509135014 | 53 | 198 | 4.3 | 8.7 | 0.00 | 0.00 | 0.00 | 87 | 1003.8 |
| 20260509134533 | 53 | 179 | 3.5 | 9.6 | 0.00 | 0.00 | 0.00 | 88 | 1003.6 |
| 20260509134015 | 53 | 190 | 6.1 | 13.0 | 0.00 | 0.00 | 0.00 | 88 | 1003.8 |
| 20260509133515 | 53 | 181 | 5.2 | 13.0 | 0.00 | 0.00 | 0.00 | 88 | 1003.8 |
| 20260509133031 | 53 | 189 | 3.5 | 8.7 | 0.00 | 0.00 | 0.00 | 88 | 1003.9 |
| 20260509132514 | 53 | 160 | 2.6 | 11.3 | 0.00 | 0.00 | 0.00 | 89 | 1004.1 |
| 20260509132014 | 53 | 197 | 4.3 | 11.3 | 0.00 | 0.00 | 0.00 | 88 | 1004.1 |
| 20260509131537 | 53 | 150 | 6.1 | 11.3 | 0.00 | 0.00 | 0.00 | 88 | 1004.1 |
| 20260509131018 | 53 | 205 | 3.5 | 8.7 | 0.00 | 0.00 | 0.00 | 88 | 1004.1 |
| 20260509130515 | 53 | 160 | 3.5 | 10.4 | 0.00 | 0.00 | 0.00 | 88 | 1004.1 |
| 20260509130034 | 53 | 195 | 4.3 | 10.4 | 0.00 | 0.00 | 0.00 | 88 | 1004.1 |
| 20260509125518 | 53 | 208 | 5.2 | 9.6 | 0.00 | 0.00 | 0.00 | 88 | 1004.1 |
| 20260509125015 | 53 | 213 | 5.2 | 8.7 | 0.00 | 0.00 | 0.00 | 89 | 1004.0 |
| 20260509124535 | 52 | 179 | 4.3 | 12.2 | 0.00 | 0.00 | 0.00 | 89 | 1004.1 |
| 20260509124013 | 52 | 229 | 5.2 | 12.2 | 0.00 | 0.00 | 0.00 | 89 | 1004.2 |
| 20260509123513 | 52 | 180 | 2.6 | 7.8 | 0.00 | 0.00 | 0.00 | 90 | 1004.3 |
| 20260509123043 | 52 | 186 | 3.5 | 8.7 | 0.00 | 0.00 | 0.00 | 91 | 1004.5 |
| 20260509122514 | 52 | 176 | 2.6 | 10.4 | 0.00 | 0.00 | 0.00 | 92 | 1004.5 |
| 20260509122015 | 51 | 0 | 3.5 | 10.4 | 0.00 | 0.00 | 0.00 | 92 | 1004.4 |
| 20260509121535 | 51 | 174 | 5.2 | 10.4 | 0.00 | 0.00 | 0.00 | 93 | 1004.4 |
| 20260509121013 | 50 | 198 | 2.6 | 8.7 | 0.00 | 0.00 | 0.00 | 94 | 1004.5 |
| 20260509120515 | 50 | 191 | 1.7 | 7.0 | 0.00 | 0.00 | 0.00 | 94 | 1004.5 |
| 20260509120030 | 49 | 198 | 3.5 | 7.0 | 0.00 | 0.00 | 0.00 | 94 | 1004.4 |
| 20260509115514 | 49 | 188 | 2.6 | 5.2 | 0.00 | 0.00 | 0.00 | 94 | 1004.5 |
| 20260509115022 | 49 | 193 | 0.9 | 6.1 | 0.00 | 0.00 | 0.00 | 94 | 1004.4 |
| 20260509114530 | 49 | 207 | 2.6 | 6.1 | 0.00 | 0.00 | 0.00 | 94 | 1004.3 |
| 20260509114014 | 49 | 195 | 1.7 | 5.2 | 0.00 | 0.00 | 0.00 | 94 | 1004.3 |
| 20260509113515 | 49 | 169 | 1.7 | 6.1 | 0.00 | 0.00 | 0.00 | 94 | 1004.3 |
| 20260509113037 | 48 | 166 | 2.6 | 6.1 | 0.00 | 0.00 | 0.00 | 95 | 1004.3 |
| 20260509112515 | 48 | 162 | 1.7 | 3.5 | 0.00 | 0.00 | 0.00 | 95 | 1004.4 |
| 20260509112013 | 48 | 193 | 1.7 | 3.5 | 0.00 | 0.00 | 0.00 | 95 | 1004.5 |
| 20260509111541 | 48 | 209 | 0.9 | 1.7 | 0.00 | 0.00 | 0.00 | 95 | 1004.5 |
| 20260509111017 | 47 | 149 | 0.9 | 1.7 | 0.00 | 0.00 | 0.00 | 95 | 1004.5 |
| 20260509110517 | 47 | 188 | 0.0 | 1.7 | 0.00 | 0.00 | 0.00 | 95 | 1004.5 |